Time;durP1;ratioP1;P1;durP2;ratioP2;P2;SDS_P1;SDS_P2;PMS_P1;PMS_P2;Temp;Humidity;BMP_temperature;BMP_pressure;BME280_temperature;BME280_humidity;BME280_pressure;Samples;Min_cycle;Max_cycle;Signal;HPM_P1;HPM_P2
2023/01/30 00:00:53;;;;;;;4.95;4.05;;;18.00;99.90;;;;;;5135066;27;20043;-64
2023/01/30 00:03:19;;;;;;;5.75;4.43;;;18.00;99.90;;;;;;5134385;27;20047;-63
2023/01/30 00:05:45;;;;;;;6.18;4.57;;;18.00;99.90;;;;;;5135294;27;20395;-63
2023/01/30 00:08:11;;;;;;;5.38;4.22;;;18.00;99.90;;;;;;5134093;27;20035;-63
2023/01/30 00:10:36;;;;;;;4.68;3.90;;;18.00;99.90;;;;;;5135141;27;20035;-63
2023/01/30 00:13:02;;;;;;;6.15;4.22;;;18.00;99.90;;;;;;5135114;27;20035;-63
2023/01/30 00:15:27;;;;;;;5.45;3.95;;;18.00;99.90;;;;;;5135929;27;20038;-64
2023/01/30 00:17:53;;;;;;;5.07;4.32;;;18.00;99.90;;;;;;5135153;27;20039;-63
2023/01/30 00:20:19;;;;;;;5.20;4.13;;;18.00;99.90;;;;;;5133629;27;20118;-63
2023/01/30 00:22:44;;;;;;;7.93;4.90;;;18.00;99.90;;;;;;5135140;27;20066;-63
2023/01/30 00:25:10;;;;;;;5.45;4.45;;;18.00;99.90;;;;;;5134997;27;20031;-63
2023/01/30 00:27:35;;;;;;;5.35;4.03;;;18.00;99.90;;;;;;5134916;27;20043;-64
2023/01/30 00:30:04;;;;;;;4.20;3.63;;;18.00;99.90;;;;;;5134962;28;20041;-63
2023/01/30 00:32:30;;;;;;;6.22;4.35;;;18.00;99.90;;;;;;5133218;28;20044;-63
2023/01/30 00:34:56;;;;;;;4.65;3.95;;;18.00;99.90;;;;;;5134995;27;20038;-63
2023/01/30 00:37:22;;;;;;;4.32;3.70;;;18.00;99.90;;;;;;5133710;28;20035;-64
2023/01/30 00:39:47;;;;;;;5.32;3.83;;;18.00;99.90;;;;;;5133431;28;20085;-63
2023/01/30 00:47:41;;;;;;;5.40;3.92;;;18.00;99.90;;;;;;5133560;28;20402;-63
2023/01/30 00:50:08;;;;;;;4.97;4.07;;;18.00;99.90;;;;;;5134845;27;20043;-63
2023/01/30 00:52:33;;;;;;;4.82;3.97;;;18.00;99.90;;;;;;5135564;27;20035;-63
2023/01/30 00:54:59;;;;;;;4.95;3.55;;;18.00;99.90;;;;;;5138894;27;20041;-63
2023/01/30 00:57:24;;;;;;;4.55;3.92;;;18.00;99.90;;;;;;5138524;27;20536;-64
2023/01/30 00:59:50;;;;;;;4.57;3.35;;;18.00;99.90;;;;;;5138777;27;20035;-64
2023/01/30 01:02:16;;;;;;;4.45;3.13;;;18.00;99.90;;;;;;5138726;27;20046;-63
2023/01/30 01:04:44;;;;;;;4.50;3.53;;;18.00;99.90;;;;;;5139284;27;20035;-63
2023/01/30 01:07:11;;;;;;;3.90;3.20;;;18.00;99.90;;;;;;5138477;27;20478;-64
2023/01/30 01:09:36;;;;;;;4.32;3.17;;;18.00;99.90;;;;;;5138694;27;20035;-64
2023/01/30 01:12:03;;;;;;;4.63;3.33;;;18.00;99.90;;;;;;5138784;27;20371;-63
2023/01/30 01:14:28;;;;;;;3.70;2.70;;;17.90;99.90;;;;;;5138525;27;20118;-63
2023/01/30 01:16:54;;;;;;;4.57;3.67;;;17.90;99.90;;;;;;5138562;27;20604;-63
2023/01/30 01:19:19;;;;;;;4.85;3.30;;;18.00;99.90;;;;;;5138405;27;20038;-64
2023/01/30 01:21:45;;;;;;;3.67;3.20;;;17.90;99.90;;;;;;5138363;27;20399;-64
2023/01/30 01:24:13;;;;;;;3.78;2.97;;;18.00;99.90;;;;;;5138402;27;20118;-63
2023/01/30 01:26:40;;;;;;;4.50;2.95;;;18.00;99.90;;;;;;5138395;27;20035;-63
2023/01/30 01:29:10;;;;;;;3.95;3.47;;;17.90;99.90;;;;;;5138071;27;20075;-64
2023/01/30 01:31:35;;;;;;;4.47;2.97;;;18.00;99.90;;;;;;5138017;27;20130;-63
2023/01/30 01:34:01;;;;;;;4.18;3.15;;;18.00;99.90;;;;;;5138302;27;20452;-63
2023/01/30 01:36:27;;;;;;;4.90;2.90;;;18.00;99.90;;;;;;5138326;27;20386;-63
2023/01/30 01:38:52;;;;;;;4.57;3.25;;;18.00;99.90;;;;;;5138207;27;20422;-63
2023/01/30 01:41:18;;;;;;;3.75;3.05;;;17.90;99.90;;;;;;5138446;27;20528;-63
2023/01/30 01:44:07;;;;;;;4.18;2.95;;;18.00;99.90;;;;;;5138207;27;20047;-63
2023/01/30 01:46:37;;;;;;;5.43;3.33;;;17.90;99.90;;;;;;5138661;27;20035;-63
2023/01/30 01:49:14;;;;;;;5.45;3.45;;;17.90;99.90;;;;;;5136908;27;20038;-63
2023/01/30 01:52:20;;;;;;;4.15;3.22;;;17.90;99.90;;;;;;5138444;27;20043;-63
2023/01/30 01:54:48;;;;;;;3.88;2.80;;;18.00;99.90;;;;;;5137004;27;20043;-63
2023/01/30 01:57:24;;;;;;;3.80;2.55;;;17.90;99.90;;;;;;5137732;27;20122;-63
2023/01/30 02:00:05;;;;;;;4.70;2.50;;;17.90;99.90;;;;;;5137722;27;20412;-63
2023/01/30 02:02:32;;;;;;;4.82;2.30;;;17.90;99.90;;;;;;5137723;27;20038;-63
2023/01/30 02:05:01;;;;;;;3.58;2.58;;;17.90;99.90;;;;;;5136834;27;20078;-63
2023/01/30 02:07:51;;;;;;;3.50;2.70;;;17.90;99.90;;;;;;5136095;27;20049;-63
2023/01/30 02:10:24;;;;;;;4.55;2.25;;;17.90;99.90;;;;;;5137195;27;20494;-63
2023/01/30 02:12:51;;;;;;;4.63;2.45;;;17.90;99.90;;;;;;5135860;27;20127;-63
2023/01/30 02:15:18;;;;;;;4.32;2.28;;;17.90;99.90;;;;;;5137372;27;20050;-64
2023/01/30 02:17:44;;;;;;;3.63;2.67;;;17.90;99.90;;;;;;5137066;27;20066;-63
2023/01/30 02:20:22;;;;;;;4.15;2.30;;;17.90;99.90;;;;;;5135772;27;20058;-63
2023/01/30 02:22:59;;;;;;;3.58;2.30;;;17.90;99.90;;;;;;5137458;27;20070;-63
2023/01/30 02:25:34;;;;;;;2.80;2.10;;;17.90;99.90;;;;;;5136020;27;20043;-63
2023/01/30 02:28:37;;;;;;;3.08;2.15;;;17.90;99.90;;;;;;5136004;27;20463;-63
2023/01/30 02:31:16;;;;;;;3.75;2.40;;;17.90;99.90;;;;;;5135291;27;20510;-63
2023/01/30 02:34:12;;;;;;;2.60;1.90;;;17.90;99.90;;;;;;5137230;27;20084;-63
2023/01/30 02:37:01;;;;;;;3.25;1.98;;;17.90;99.90;;;;;;5137249;27;20269;-63
2023/01/30 02:39:46;;;;;;;2.28;1.85;;;17.90;99.90;;;;;;5137381;27;20031;-63
2023/01/30 02:42:19;;;;;;;3.20;1.85;;;17.90;99.90;;;;;;5136911;27;20066;-63
2023/01/30 02:45:09;;;;;;;2.45;1.88;;;17.90;99.90;;;;;;5136586;27;20486;-63
2023/01/30 02:48:04;;;;;;;3.50;2.08;;;17.90;99.90;;;;;;5136875;27;20376;-63
2023/01/30 02:50:44;;;;;;;3.20;1.80;;;17.90;99.90;;;;;;5135402;27;20039;-63
2023/01/30 02:53:10;;;;;;;2.00;1.50;;;17.90;99.90;;;;;;5137113;27;20374;-63
2023/01/30 02:55:40;;;;;;;2.58;1.80;;;17.90;99.90;;;;;;5136564;27;20047;-63
2023/01/30 02:58:06;;;;;;;3.17;1.65;;;17.90;99.90;;;;;;5136563;27;20064;-63
2023/01/30 03:00:31;;;;;;;3.28;1.70;;;17.90;99.90;;;;;;5136460;27;20063;-63
2023/01/30 03:03:13;;;;;;;3.17;2.05;;;17.90;99.90;;;;;;5136454;27;20035;-63
2023/01/30 03:06:13;;;;;;;2.35;1.50;;;17.90;99.90;;;;;;5135103;27;20039;-63
2023/01/30 03:08:56;;;;;;;3.65;1.80;;;17.90;99.90;;;;;;5136691;27;20039;-63
2023/01/30 03:11:27;;;;;;;4.80;1.77;;;17.90;99.90;;;;;;5136211;27;20050;-63
2023/01/30 03:14:12;;;;;;;3.28;1.92;;;17.90;99.90;;;;;;5136297;27;20110;-63
2023/01/30 03:16:40;;;;;;;4.28;1.85;;;17.90;99.90;;;;;;5133827;27;20039;-63
2023/01/30 03:19:10;;;;;;;2.78;1.48;;;17.90;99.90;;;;;;5135046;27;20039;-63
2023/01/30 03:21:43;;;;;;;3.35;1.58;;;17.90;99.90;;;;;;5136241;27;20043;-63
2023/01/30 03:24:13;;;;;;;3.80;1.90;;;17.90;99.90;;;;;;5136122;27;20113;-63
2023/01/30 03:26:53;;;;;;;;;;;17.90;99.90;;;;;;5136459;27;20075;-63
2023/01/30 03:29:19;;;;;;;2.75;1.52;;;17.90;99.90;;;;;;5136010;27;19916;-63
2023/01/30 03:31:45;;;;;;;4.95;2.33;;;17.80;99.90;;;;;;5135452;27;20514;-63
2023/01/30 03:34:10;;;;;;;3.45;1.65;;;17.80;99.90;;;;;;5136410;27;20488;-63
2023/01/30 03:36:36;;;;;;;5.47;2.05;;;17.80;99.90;;;;;;5135795;27;20031;-63
2023/01/30 03:39:02;;;;;;;6.25;2.05;;;17.80;99.90;;;;;;5135752;27;20087;-63
2023/01/30 03:41:28;;;;;;;3.75;1.77;;;17.80;99.90;;;;;;5135653;27;20035;-63
2023/01/30 03:43:53;;;;;;;4.70;1.80;;;17.80;99.90;;;;;;5135310;27;20035;-63
2023/01/30 03:46:19;;;;;;;3.97;1.80;;;17.90;99.90;;;;;;5135588;27;20046;-63
2023/01/30 03:48:45;;;;;;;5.18;1.90;;;17.90;99.90;;;;;;5135517;27;20087;-63
2023/01/30 03:51:10;;;;;;;5.28;1.80;;;17.80;99.90;;;;;;5135143;27;20471;-63
2023/01/30 03:53:36;;;;;;;5.63;2.10;;;17.80;99.90;;;;;;5134040;27;20074;-63
2023/01/30 03:56:01;;;;;;;5.25;2.10;;;17.80;99.90;;;;;;5134202;27;20041;-63
2023/01/30 03:58:27;;;;;;;5.05;1.73;;;17.80;99.90;;;;;;5135016;27;20387;-63
2023/01/30 04:00:55;;;;;;;5.78;1.95;;;17.80;99.90;;;;;;5135371;27;20039;-63
2023/01/30 04:03:21;;;;;;;5.00;2.08;;;17.80;99.90;;;;;;5134399;27;20051;-63
2023/01/30 04:05:46;;;;;;;5.80;2.17;;;17.80;99.90;;;;;;5135342;27;20393;-63
2023/01/30 04:08:12;;;;;;;7.03;2.30;;;17.80;99.90;;;;;;5134793;27;20042;-63
2023/01/30 04:10:38;;;;;;;5.95;1.95;;;17.80;99.90;;;;;;5135116;27;20031;-63
2023/01/30 04:13:03;;;;;;;7.43;2.65;;;17.80;99.90;;;;;;5134971;27;20043;-63
2023/01/30 04:15:29;;;;;;;5.25;1.95;;;17.80;99.90;;;;;;5135220;27;20386;-63
2023/01/30 04:17:54;;;;;;;7.32;2.47;;;17.80;99.90;;;;;;5135149;27;20072;-63
2023/01/30 04:20:20;;;;;;;7.57;2.85;;;17.80;99.90;;;;;;5135063;27;20429;-63
2023/01/30 04:22:46;;;;;;;5.35;2.00;;;17.80;99.90;;;;;;5135031;27;20046;-63
2023/01/30 04:25:11;;;;;;;6.35;2.05;;;17.80;99.90;;;;;;5134987;27;20063;-63
2023/01/30 04:27:37;;;;;;;6.28;2.20;;;17.80;99.90;;;;;;5134806;27;20035;-63
2023/01/30 04:30:03;;;;;;;5.13;2.08;;;17.80;99.90;;;;;;5134877;27;20031;-63
2023/01/30 04:32:29;;;;;;;6.60;2.10;;;17.80;99.90;;;;;;5134451;27;20043;-63
2023/01/30 04:34:54;;;;;;;6.15;2.28;;;17.80;99.80;;;;;;5134905;28;20046;-63
2023/01/30 04:37:21;;;;;;;5.80;2.30;;;17.80;99.90;;;;;;5135000;28;20041;-63
2023/01/30 04:39:46;;;;;;;5.63;1.98;;;17.70;99.80;;;;;;5133620;28;20050;-63
2023/01/30 04:42:12;;;;;;;8.05;2.83;;;17.80;99.80;;;;;;5134916;27;20039;-63
2023/01/30 04:44:38;;;;;;;5.78;2.38;;;17.80;99.80;;;;;;5133423;28;20039;-63
2023/01/30 04:47:03;;;;;;;5.40;2.33;;;17.80;99.60;;;;;;5133250;28;20072;-63
2023/01/30 04:49:29;;;;;;;6.65;2.28;;;17.80;99.50;;;;;;5133254;28;20073;-63
2023/01/30 04:51:55;;;;;;;6.32;1.95;;;17.80;99.60;;;;;;5134899;28;20130;-63
2023/01/30 04:54:20;;;;;;;7.30;2.42;;;17.80;99.40;;;;;;5134858;27;20109;-63
2023/01/30 04:56:46;;;;;;;6.78;2.80;;;17.80;99.40;;;;;;5133296;28;20444;-63
2023/01/30 04:59:12;;;;;;;8.68;2.80;;;17.80;99.20;;;;;;5134769;28;20035;-63
2023/01/30 05:01:38;;;;;;;10.65;2.75;;;17.80;99.20;;;;;;5133301;28;20394;-64
2023/01/30 05:04:05;;;;;;;8.00;2.63;;;17.70;99.20;;;;;;5134527;27;20100;-63
2023/01/30 05:06:32;;;;;;;6.93;2.40;;;17.80;99.10;;;;;;5133625;28;20040;-63
2023/01/30 05:08:57;;;;;;;7.43;2.38;;;17.80;99.10;;;;;;5134848;27;20039;-63
2023/01/30 05:11:24;;;;;;;8.68;2.47;;;17.80;99.10;;;;;;5134689;28;20391;-63
2023/01/30 05:13:50;;;;;;;5.97;2.17;;;17.80;99.00;;;;;;5134740;27;20031;-63
2023/01/30 05:16:16;;;;;;;8.52;2.45;;;17.80;98.90;;;;;;5134671;28;20062;-63
2023/01/30 05:18:42;;;;;;;7.75;2.33;;;17.70;98.80;;;;;;5134574;27;20043;-63
2023/01/30 05:21:29;;;;;;;7.93;2.15;;;17.80;98.80;;;;;;5132909;28;20051;-63
2023/01/30 05:23:55;;;;;;;7.25;2.55;;;17.80;98.80;;;;;;5134227;27;20035;-63
2023/01/30 05:26:21;;;;;;;9.00;3.33;;;17.80;98.70;;;;;;5133029;28;20092;-63
2023/01/30 05:28:55;;;;;;;10.10;2.55;;;17.80;98.80;;;;;;5134371;28;20043;-63
2023/01/30 05:31:21;;;;;;;10.05;2.92;;;17.80;98.70;;;;;;5132936;28;20377;-63
2023/01/30 05:33:49;;;;;;;6.88;2.50;;;17.80;98.70;;;;;;5134517;27;20043;-63
2023/01/30 05:36:17;;;;;;;8.45;2.70;;;17.80;98.70;;;;;;5134445;27;20031;-63
2023/01/30 05:38:43;;;;;;;9.18;2.88;;;17.80;98.60;;;;;;5135532;27;20027;-64
2023/01/30 05:41:11;;;;;;;7.32;2.92;;;17.80;98.50;;;;;;5137978;27;20042;-63
2023/01/30 05:43:37;;;;;;;9.73;2.65;;;17.80;98.50;;;;;;5137990;27;20038;-64
2023/01/30 05:46:04;;;;;;;8.38;2.70;;;17.70;98.50;;;;;;5138004;27;20035;-63
2023/01/30 05:48:31;;;;;;;5.43;2.88;;;17.80;98.50;;;;;;5137961;27;20042;-63
2023/01/30 05:50:58;;;;;;;8.68;2.80;;;17.80;98.50;;;;;;5137829;27;20039;-64
2023/01/30 05:53:27;;;;;;;10.85;3.10;;;17.80;98.50;;;;;;5137992;27;20046;-63
2023/01/30 05:56:03;;;;;;;9.20;2.72;;;17.80;98.50;;;;;;5136268;27;20046;-63
2023/01/30 05:58:29;;;;;;;9.48;3.40;;;17.80;98.60;;;;;;5137866;27;20064;-63
2023/01/30 06:01:02;;;;;;;10.88;3.13;;;17.70;98.70;;;;;;5136208;27;20042;-63
2023/01/30 06:03:28;;;;;;;10.10;3.25;;;17.80;98.50;;;;;;5137673;27;20042;-63
2023/01/30 06:05:54;;;;;;;8.52;2.90;;;17.80;98.60;;;;;;5136364;27;20035;-63
2023/01/30 06:08:20;;;;;;;8.82;3.22;;;17.80;98.50;;;;;;5137777;27;20095;-63
2023/01/30 06:10:46;;;;;;;11.70;3.47;;;17.80;98.60;;;;;;5137195;27;20027;-63
2023/01/30 06:13:11;;;;;;;13.50;3.35;;;17.70;98.50;;;;;;5135923;27;20039;-63
2023/01/30 06:15:37;;;;;;;14.20;4.85;;;17.80;98.50;;;;;;5137008;27;20043;-63
2023/01/30 06:18:03;;;;;;;28.10;11.85;;;17.80;98.70;;;;;;5136292;27;20039;-63
2023/01/30 06:20:29;;;;;;;45.25;19.67;;;17.80;99.00;;;;;;5137451;27;20364;-63
2023/01/30 06:22:55;;;;;;;51.53;23.92;;;17.80;99.20;;;;;;5137471;27;20043;-63
2023/01/30 06:25:20;;;;;;;52.28;23.80;;;17.80;99.30;;;;;;5137300;27;20036;-63
2023/01/30 06:27:46;;;;;;;55.67;25.45;;;17.80;99.30;;;;;;5136918;27;20517;-63
2023/01/30 06:30:12;;;;;;;57.63;25.45;;;17.80;99.40;;;;;;5137127;27;20121;-63
2023/01/30 06:32:38;;;;;;;59.60;24.73;;;17.80;99.20;;;;;;5136645;27;20406;-63
2023/01/30 06:35:04;;;;;;;47.22;20.85;;;17.80;99.20;;;;;;5136966;27;20042;-63
2023/01/30 06:37:29;;;;;;;41.95;18.33;;;17.80;99.20;;;;;;5136687;27;20031;-63
2023/01/30 06:39:55;;;;;;;39.55;16.65;;;17.80;99.00;;;;;;5136948;27;20076;-63
2023/01/30 06:42:20;;;;;;;35.33;14.65;;;17.80;99.00;;;;;;5118190;27;20039;-63
2023/01/30 06:44:46;;;;;;;34.67;13.75;;;17.80;99.00;;;;;;5136617;27;20078;-63
2023/01/30 06:47:12;;;;;;;30.08;12.27;;;17.80;98.80;;;;;;5136843;27;20390;-63
2023/01/30 06:49:37;;;;;;;26.80;10.27;;;17.80;98.60;;;;;;5136766;27;20031;-63
2023/01/30 06:52:03;;;;;;;21.88;10.02;;;17.70;98.30;;;;;;5169823;27;20120;-63
2023/01/30 06:54:29;;;;;;;18.52;8.68;;;17.80;98.40;;;;;;5136707;27;20035;-63
2023/01/30 06:56:55;;;;;;;22.45;7.30;;;17.80;98.00;;;;;;5136656;27;20099;-63
2023/01/30 06:59:20;;;;;;;22.67;7.45;;;17.80;97.90;;;;;;5135072;27;20475;-63
2023/01/30 07:01:46;;;;;;;14.85;5.57;;;17.80;98.00;;;;;;5136476;27;20046;-63
2023/01/30 07:04:11;;;;;;;18.83;6.25;;;17.80;97.70;;;;;;5136536;27;20035;-63
2023/01/30 07:06:37;;;;;;;14.18;4.93;;;17.80;97.70;;;;;;5136471;27;20043;-63
2023/01/30 07:09:03;;;;;;;14.57;6.05;;;17.70;97.50;;;;;;5136185;27;20035;-63
2023/01/30 07:11:30;;;;;;;12.68;5.55;;;17.80;97.50;;;;;;5136224;27;20036;-63
2023/01/30 07:13:56;;;;;;;12.43;3.95;;;17.80;97.40;;;;;;5136250;27;20053;-63
2023/01/30 07:16:27;;;;;;;11.15;4.03;;;17.70;97.20;;;;;;5136282;27;20387;-63
2023/01/30 07:18:56;;;;;;;13.02;4.00;;;17.70;97.60;;;;;;5136205;27;20104;-63
2023/01/30 07:21:22;;;;;;;11.60;3.78;;;17.80;97.00;;;;;;5135180;27;20042;-63
2023/01/30 07:23:47;;;;;;;12.70;3.88;;;17.70;96.80;;;;;;5136165;27;20039;-63
2023/01/30 07:26:13;;;;;;;12.77;4.07;;;17.70;97.10;;;;;;5134653;27;20432;-63
2023/01/30 07:28:39;;;;;;;10.90;3.60;;;17.70;96.60;;;;;;5134461;27;20078;-63
2023/01/30 07:31:04;;;;;;;10.27;3.58;;;17.70;96.50;;;;;;5135555;27;20061;-63
2023/01/30 07:33:30;;;;;;;10.00;3.33;;;17.70;96.60;;;;;;5135632;27;20406;-64
2023/01/30 07:35:56;;;;;;;11.25;3.55;;;17.70;96.40;;;;;;5135969;27;20454;-62
2023/01/30 07:38:21;;;;;;;10.18;3.10;;;17.70;96.60;;;;;;5135982;27;20372;-62
2023/01/30 07:40:47;;;;;;;7.72;2.90;;;17.70;96.50;;;;;;5135479;27;20394;-63
2023/01/30 07:43:13;;;;;;;12.25;3.25;;;17.70;96.70;;;;;;5135742;27;20376;-62
2023/01/30 07:45:40;;;;;;;9.50;3.10;;;17.70;96.90;;;;;;5135602;27;20031;-60
2023/01/30 07:48:16;;;;;;;9.10;3.13;;;17.70;97.00;;;;;;5135739;27;20394;-62
2023/01/30 07:50:42;;;;;;;12.60;3.20;;;17.80;97.10;;;;;;5135248;27;20046;-61
2023/01/30 07:53:13;;;;;;;10.20;3.05;;;17.70;96.90;;;;;;5135401;27;20077;-64
2023/01/30 07:55:39;;;;;;;6.75;2.60;;;17.80;97.00;;;;;;5135573;27;20035;-63
2023/01/30 07:58:05;;;;;;;10.55;3.40;;;17.80;96.90;;;;;;5135429;27;20198;-62
2023/01/30 08:00:31;;;;;;;8.60;2.75;;;17.70;96.90;;;;;;5135422;27;20501;-62
2023/01/30 08:02:57;;;;;;;8.75;2.70;;;17.70;96.70;;;;;;5133815;27;20087;-61
2023/01/30 08:05:23;;;;;;;5.93;2.53;;;17.80;96.60;;;;;;5135428;27;20109;-62
2023/01/30 08:07:49;;;;;;;10.43;2.75;;;17.70;96.70;;;;;;5116825;27;20507;-62
2023/01/30 08:10:15;;;;;;;8.65;2.95;;;17.70;96.70;;;;;;5135256;27;20046;-61
2023/01/30 08:12:41;;;;;;;8.85;2.60;;;17.70;96.40;;;;;;5135208;27;20047;-62
2023/01/30 08:15:08;;;;;;;8.77;2.47;;;17.70;96.40;;;;;;5135230;27;20031;-62
2023/01/30 08:17:34;;;;;;;8.13;2.60;;;17.70;96.40;;;;;;5133967;27;20481;-62
2023/01/30 08:19:59;;;;;;;9.93;3.17;;;17.70;96.30;;;;;;5135233;27;20150;-62
2023/01/30 08:22:26;;;;;;;10.25;2.55;;;17.70;96.30;;;;;;5134078;27;20482;-62
2023/01/30 08:24:52;;;;;;;7.32;2.30;;;17.70;96.30;;;;;;5135102;27;20076;-62
2023/01/30 08:27:18;;;;;;;6.57;2.22;;;17.70;96.40;;;;;;5133592;27;20031;-62
2023/01/30 08:29:43;;;;;;;8.60;2.58;;;17.70;96.30;;;;;;5135153;27;20035;-62
2023/01/30 08:32:09;;;;;;;8.95;2.92;;;17.70;96.30;;;;;;5134181;27;20074;-61
2023/01/30 08:34:35;;;;;;;10.43;3.42;;;17.70;96.40;;;;;;5135155;27;20042;-63
2023/01/30 08:37:01;;;;;;;10.23;3.03;;;17.70;96.50;;;;;;5133675;28;20039;-62
2023/01/30 08:39:27;;;;;;;11.40;4.22;;;17.70;96.70;;;;;;5133614;28;20073;-62
2023/01/30 08:41:52;;;;;;;14.45;3.83;;;17.80;97.10;;;;;;5135094;28;20187;-63
2023/01/30 08:44:18;;;;;;;12.60;4.25;;;17.80;97.40;;;;;;5133499;28;20075;-62
2023/01/30 08:46:44;;;;;;;12.10;3.80;;;17.80;97.60;;;;;;5134851;28;20043;-62
2023/01/30 08:49:10;;;;;;;13.68;4.60;;;17.80;97.70;;;;;;5134503;27;20042;-62
2023/01/30 08:51:35;;;;;;;14.93;4.10;;;17.80;97.80;;;;;;5134526;27;20035;-62
2023/01/30 08:54:01;;;;;;;10.60;4.00;;;17.80;98.00;;;;;;5133689;28;20076;-62
2023/01/30 08:56:27;;;;;;;11.40;3.63;;;17.80;98.00;;;;;;5134764;28;20043;-62
2023/01/30 08:58:52;;;;;;;14.82;4.38;;;17.80;98.10;;;;;;5134479;28;20037;-62
2023/01/30 09:01:18;;;;;;;13.15;4.40;;;17.80;98.20;;;;;;5134682;27;20444;-62
2023/01/30 09:03:44;;;;;;;11.52;4.00;;;17.80;98.20;;;;;;5134448;27;20035;-62
2023/01/30 09:06:09;;;;;;;12.38;4.97;;;17.80;98.30;;;;;;5134972;28;20144;-63
2023/01/30 09:08:35;;;;;;;9.95;3.30;;;17.80;98.40;;;;;;5134389;28;20031;-62
2023/01/30 09:11:03;;;;;;;14.35;3.70;;;17.80;98.50;;;;;;5134479;28;20039;-63
2023/01/30 09:13:29;;;;;;;12.07;3.60;;;17.80;98.60;;;;;;5135068;27;20058;-63
2023/01/30 09:15:56;;;;;;;9.88;3.10;;;17.80;98.60;;;;;;5138567;27;20027;-62
2023/01/30 09:18:23;;;;;;;11.32;3.50;;;17.80;98.70;;;;;;5138315;27;20156;-62
2023/01/30 09:20:48;;;;;;;12.65;3.67;;;17.80;98.70;;;;;;5138236;27;20031;-62
2023/01/30 09:23:14;;;;;;;10.68;3.70;;;17.80;98.70;;;;;;5138614;27;20050;-62
2023/01/30 09:25:40;;;;;;;9.35;3.65;;;17.80;98.70;;;;;;5138933;27;20038;-62
2023/01/30 09:28:06;;;;;;;12.30;3.55;;;17.80;98.80;;;;;;5138093;27;20035;-62
2023/01/30 09:30:32;;;;;;;8.52;3.03;;;17.80;98.80;;;;;;5137875;27;20043;-62
2023/01/30 09:32:58;;;;;;;11.45;3.25;;;17.80;98.90;;;;;;5138731;27;20122;-61
2023/01/30 09:35:24;;;;;;;10.82;3.42;;;17.80;98.90;;;;;;5138265;27;20061;-62
2023/01/30 09:37:51;;;;;;;13.20;3.88;;;17.80;99.30;;;;;;5119589;27;20050;-62
2023/01/30 09:40:21;;;;;;;10.98;3.80;;;17.80;98.90;;;;;;5138164;27;20078;-63
2023/01/30 09:42:56;;;;;;;;;;;17.80;98.90;;;;;;5138546;27;20118;-64
2023/01/30 09:45:43;;;;;;;12.85;3.67;;;17.80;99.00;;;;;;5138104;27;19915;-63
2023/01/30 09:48:44;;;;;;;14.65;4.13;;;17.80;98.90;;;;;;5136645;27;20039;-62
2023/01/30 09:51:26;;;;;;;11.57;3.33;;;17.80;99.00;;;;;;5118046;27;20051;-63
2023/01/30 09:54:06;;;;;;;13.02;3.67;;;17.80;98.90;;;;;;5136622;27;20032;-60
2023/01/30 09:56:32;;;;;;;9.00;3.45;;;17.80;98.90;;;;;;5137890;27;20073;-61
2023/01/30 09:59:01;;;;;;;10.57;3.72;;;17.80;99.30;;;;;;5138098;27;20035;-60
2023/01/30 10:01:53;;;;;;;8.97;3.37;;;17.80;99.00;;;;;;5138288;27;20039;-60
2023/01/30 10:04:43;;;;;;;11.52;3.22;;;17.80;98.90;;;;;;5137705;27;20039;-61
2023/01/30 10:07:29;;;;;;;8.80;3.00;;;17.80;99.00;;;;;;5137779;27;20076;-60
2023/01/30 10:10:33;;;;;;;12.60;3.50;;;17.80;99.10;;;;;;5136558;27;20035;-60
2023/01/30 10:13:20;;;;;;;9.30;3.13;;;17.80;99.10;;;;;;5135915;27;20084;-60
2023/01/30 10:15:54;;;;;;;11.00;3.17;;;17.80;99.20;;;;;;5137248;27;20475;-60
2023/01/30 10:18:41;;;;;;;8.20;3.20;;;17.80;99.20;;;;;;5136018;27;20042;-60
2023/01/30 10:21:28;;;;;;;9.60;2.63;;;17.80;99.20;;;;;;5137466;27;20505;-60
2023/01/30 10:24:09;;;;;;;8.70;2.88;;;17.80;99.20;;;;;;5137350;27;20035;-60
2023/01/30 10:26:35;;;;;;;9.88;2.85;;;17.80;99.20;;;;;;5137103;27;20117;-60
2023/01/30 10:29:34;;;;;;;8.32;3.03;;;17.80;99.30;;;;;;5137220;27;20095;-60
2023/01/30 10:32:12;;;;;;;7.82;2.83;;;17.80;99.30;;;;;;5136791;27;20043;-60
2023/01/30 10:34:41;;;;;;;9.73;3.25;;;17.80;99.30;;;;;;5137078;27;20043;-60
2023/01/30 10:37:18;;;;;;;6.82;3.42;;;17.80;99.20;;;;;;5137061;27;20035;-59
2023/01/30 10:39:57;;;;;;;9.93;3.20;;;17.90;99.20;;;;;;5136461;27;20070;-59
2023/01/30 10:42:33;;;;;;;8.25;2.97;;;17.80;99.30;;;;;;5137009;27;20079;-60
2023/01/30 10:45:13;;;;;;;8.75;2.90;;;17.80;99.20;;;;;;5137395;27;20088;-59
2023/01/30 10:47:55;;;;;;;8.20;3.10;;;17.90;99.20;;;;;;5135335;27;20082;-60
2023/01/30 10:50:29;;;;;;;6.82;2.50;;;17.80;99.10;;;;;;5136352;27;20126;-60
2023/01/30 10:53:14;;;;;;;7.75;2.72;;;17.80;99.10;;;;;;5136593;27;20039;-61
2023/01/30 10:55:47;;;;;;;6.60;2.45;;;17.90;99.20;;;;;;5135261;27;20039;-61
2023/01/30 10:58:25;;;;;;;7.20;3.28;;;17.90;99.10;;;;;;5136396;27;20084;-61
2023/01/30 11:00:50;;;;;;;9.13;2.67;;;17.80;99.20;;;;;;5136648;27;20056;-61
2023/01/30 11:03:21;;;;;;;5.97;2.42;;;17.80;99.10;;;;;;5136560;27;20039;-60
2023/01/30 11:05:53;;;;;;;7.72;2.70;;;17.80;99.10;;;;;;5136477;27;20089;-60
2023/01/30 11:08:20;;;;;;;8.82;2.78;;;17.80;99.20;;;;;;5136638;27;20391;-59
2023/01/30 11:10:46;;;;;;;7.75;2.53;;;17.80;99.20;;;;;;5136451;27;20078;-61
2023/01/30 11:13:19;;;;;;;5.90;2.22;;;17.80;99.20;;;;;;5135859;27;20071;-61
2023/01/30 11:15:48;;;;;;;6.80;2.38;;;17.80;99.20;;;;;;5136251;27;20088;-61
2023/01/30 11:18:16;;;;;;;7.22;2.42;;;17.80;99.20;;;;;;5136272;27;20083;-61
2023/01/30 11:20:45;;;;;;;7.50;2.70;;;17.80;99.20;;;;;;5136197;27;20031;-61
2023/01/30 11:23:26;;;;;;;6.18;2.67;;;17.80;99.20;;;;;;5134675;27;20043;-61
2023/01/30 11:25:56;;;;;;;8.43;2.80;;;17.80;99.10;;;;;;5135786;27;20046;-61
2023/01/30 11:28:25;;;;;;;5.95;2.30;;;17.80;99.10;;;;;;5136087;27;20043;-61
2023/01/30 11:30:59;;;;;;;7.05;2.78;;;17.80;99.40;;;;;;5134189;27;20055;-61
2023/01/30 11:33:37;;;;;;;6.35;2.70;;;17.90;99.00;;;;;;5136010;27;20054;-61
2023/01/30 11:36:24;;;;;;;6.32;2.20;;;17.90;99.00;;;;;;5135347;27;20043;-61
2023/01/30 11:39:14;;;;;;;5.82;2.35;;;17.90;99.00;;;;;;5136548;27;20557;-61
2023/01/30 11:41:52;;;;;;;7.75;2.60;;;17.90;99.00;;;;;;5127695;27;20066;-61
2023/01/30 11:44:34;;;;;;;5.60;2.35;;;17.80;98.90;;;;;;5135764;27;20047;-61
2023/01/30 11:47:05;;;;;;;6.20;2.38;;;17.80;98.90;;;;;;5136234;27;20151;-61
2023/01/30 11:49:36;;;;;;;7.38;2.63;;;17.90;98.80;;;;;;5135669;27;20074;-61
2023/01/30 11:52:04;;;;;;;5.65;2.22;;;17.90;98.70;;;;;;5134060;27;20050;-61
2023/01/30 11:54:38;;;;;;;5.97;1.90;;;17.90;98.70;;;;;;5134334;27;20051;-61
2023/01/30 11:57:09;;;;;;;6.13;2.42;;;17.90;98.60;;;;;;5135293;27;20487;-61
2023/01/30 11:59:42;;;;;;;6.53;2.50;;;17.90;98.60;;;;;;5135497;27;20046;-61
2023/01/30 12:02:20;;;;;;;6.57;2.22;;;17.90;98.50;;;;;;5135455;27;20043;-61
2023/01/30 12:04:50;;;;;;;6.20;1.63;;;17.90;98.40;;;;;;5135308;27;20043;-61
2023/01/30 12:07:19;;;;;;;7.82;2.30;;;17.90;98.40;;;;;;5135326;27;20043;-61
2023/01/30 12:09:44;;;;;;;6.57;2.67;;;17.90;98.30;;;;;;5135065;27;20043;-61
2023/01/30 12:12:32;;;;;;;5.28;1.92;;;17.80;98.30;;;;;;5135143;27;20307;-61
2023/01/30 12:15:16;;;;;;;6.18;2.63;;;17.90;98.30;;;;;;5135219;27;20043;-61
2023/01/30 12:17:57;;;;;;;4.93;1.73;;;17.90;98.20;;;;;;5133996;27;20070;-60
2023/01/30 12:20:44;;;;;;;7.75;2.15;;;17.80;98.10;;;;;;5134011;27;20035;-61
2023/01/30 12:23:13;;;;;;;5.18;1.73;;;17.80;98.20;;;;;;5133842;27;20079;-61
2023/01/30 12:26:03;;;;;;;5.85;2.00;;;17.80;98.30;;;;;;5134929;27;20031;-61
2023/01/30 12:28:47;;;;;;;4.82;1.70;;;17.80;98.30;;;;;;5135117;27;20043;-61
2023/01/30 12:31:23;;;;;;;5.55;2.10;;;17.80;98.40;;;;;;5168103;27;20051;-61
2023/01/30 12:33:49;;;;;;;5.28;1.63;;;17.90;98.50;;;;;;5133845;27;20039;-61
2023/01/30 12:36:18;;;;;;;5.80;1.70;;;17.80;98.40;;;;;;5133452;28;20035;-61
2023/01/30 12:39:05;;;;;;;4.90;1.83;;;17.80;98.50;;;;;;5134733;28;20513;-62
2023/01/30 12:41:59;;;;;;;4.50;1.67;;;17.80;98.50;;;;;;5134928;28;20043;-61
2023/01/30 12:44:25;;;;;;;4.07;1.70;;;17.80;98.50;;;;;;5104008;28;20048;-61
2023/01/30 12:46:59;;;;;;;5.80;1.70;;;17.90;98.50;;;;;;5134083;28;20433;-61
2023/01/30 12:49:37;;;;;;;4.82;2.15;;;17.80;98.50;;;;;;5137661;27;20046;-61
2023/01/30 12:52:08;;;;;;;5.55;1.85;;;17.90;98.50;;;;;;5139203;27;20414;-61
2023/01/30 12:54:52;;;;;;;5.03;2.20;;;17.90;98.50;;;;;;5139108;27;20050;-61
2023/01/30 12:57:43;;;;;;;3.28;1.50;;;17.90;98.50;;;;;;5139145;27;20043;-60
2023/01/30 13:00:24;;;;;;;3.72;1.60;;;17.80;98.40;;;;;;5137931;27;20047;-60
2023/01/30 13:03:09;;;;;;;3.83;1.52;;;17.90;98.50;;;;;;5139011;27;20063;-60
2023/01/30 13:05:49;;;;;;;4.35;1.52;;;17.90;98.50;;;;;;5138878;27;20042;-60